Time;durP1;ratioP1;P1;durP2;ratioP2;P2;SDS_P1;SDS_P2;PMS_P1;PMS_P2;Temp;Humidity;BMP_temperature;BMP_pressure;BME280_temperature;BME280_humidity;BME280_pressure;Samples;Min_cycle;Max_cycle;Signal;HPM_P1;HPM_P2
2022/09/04 00:02:17;;;;;;;8.45;3.88;;;25.00;84.70;;;;;;5033430;28;20041;-71
2022/09/04 00:04:52;;;;;;;16.40;3.90;;;25.00;84.70;;;;;;5033344;28;20029;-70
2022/09/04 00:07:36;;;;;;;9.73;3.85;;;24.90;84.40;;;;;;5033119;28;20037;-67
2022/09/04 00:10:21;;;;;;;8.77;3.67;;;24.90;85.00;;;;;;5033336;28;20108;-67
2022/09/04 00:13:22;;;;;;;6.95;3.72;;;24.90;85.20;;;;;;5033542;28;20029;-66
2022/09/04 00:15:53;;;;;;;7.60;3.67;;;24.90;85.40;;;;;;5020257;28;20029;-66
2022/09/04 00:18:19;;;;;;;6.45;3.60;;;24.90;85.70;;;;;;5015345;28;20033;-66
2022/09/04 00:20:47;;;;;;;8.15;4.07;;;24.90;84.80;;;;;;5032535;28;20459;-66
2022/09/04 00:23:18;;;;;;;6.63;3.65;;;24.90;84.80;;;;;;5032841;28;20088;-67
2022/09/04 00:25:52;;;;;;;10.07;4.40;;;24.90;85.10;;;;;;5015415;28;20037;-66
2022/09/04 00:28:23;;;;;;;;;;;24.90;85.40;;;;;;5033257;28;20036;-73
2022/09/04 00:31:01;;;;;;;6.00;3.85;;;24.80;86.40;;;;;;5015504;28;19927;-80
2022/09/04 00:34:08;;;;;;;5.68;3.60;;;24.80;85.20;;;;;;5032913;28;20025;-79
2022/09/04 00:36:38;;;;;;;6.97;3.92;;;24.80;86.20;;;;;;5033230;28;20421;-78
2022/09/04 00:39:33;;;;;;;6.05;3.85;;;24.80;85.40;;;;;;5032936;28;20116;-77
2022/09/04 00:42:23;;;;;;;7.72;4.35;;;24.80;85.20;;;;;;5032810;28;20041;-77
2022/09/04 00:45:05;;;;;;;6.45;3.67;;;24.80;85.90;;;;;;5032979;28;20404;-77
2022/09/04 00:47:39;;;;;;;6.55;3.50;;;24.80;86.30;;;;;;5032825;28;20021;-78
2022/09/04 00:50:06;;;;;;;6.30;3.80;;;24.80;86.20;;;;;;5032994;28;20382;-79
2022/09/04 00:52:40;;;;;;;8.48;3.90;;;24.80;85.50;;;;;;5032689;28;20061;-77
2022/09/04 00:55:39;;;;;;;9.13;4.13;;;24.70;86.30;;;;;;5032712;28;20083;-71
2022/09/04 00:58:20;;;;;;;5.53;3.58;;;24.70;86.40;;;;;;5032954;28;20026;-70
2022/09/04 01:00:47;;;;;;;9.88;3.40;;;24.70;85.70;;;;;;5032410;28;20568;-73
2022/09/04 01:03:46;;;;;;;7.13;3.85;;;24.60;85.80;;;;;;5032643;28;20028;-67
2022/09/04 01:06:31;;;;;;;8.77;3.85;;;24.70;86.90;;;;;;5032320;28;20045;-67
2022/09/04 01:09:21;;;;;;;7.85;3.65;;;24.60;87.00;;;;;;5032658;28;20104;-66
2022/09/04 01:12:20;;;;;;;7.20;3.70;;;24.70;86.90;;;;;;5032592;28;20372;-71
2022/09/04 01:14:58;;;;;;;7.82;3.85;;;24.70;86.90;;;;;;5032220;28;20338;-67
2022/09/04 01:17:40;;;;;;;8.82;3.38;;;24.60;86.90;;;;;;5032431;28;20113;-69
2022/09/04 01:20:28;;;;;;;5.80;3.15;;;24.60;86.10;;;;;;5032803;28;20434;-67
2022/09/04 01:23:05;;;;;;;9.27;3.75;;;24.60;87.20;;;;;;5032464;28;20112;-65
2022/09/04 01:26:01;;;;;;;7.80;3.63;;;24.60;86.70;;;;;;5032560;28;20057;-67
2022/09/04 01:29:00;;;;;;;7.15;3.22;;;24.60;86.30;;;;;;5032449;28;20018;-68
2022/09/04 01:31:49;;;;;;;7.50;3.60;;;24.50;86.20;;;;;;5032577;28;20549;-78
2022/09/04 01:34:35;;;;;;;6.35;3.30;;;24.50;86.10;;;;;;5032525;28;20096;-74
2022/09/04 01:37:16;;;;;;;7.88;3.35;;;24.50;86.00;;;;;;5032688;28;20104;-77
2022/09/04 01:39:47;;;;;;;6.65;3.03;;;24.50;86.10;;;;;;5033632;28;20026;-78
2022/09/04 01:42:42;;;;;;;7.15;3.17;;;24.50;85.10;;;;;;5032852;28;20418;-76
2022/09/04 01:45:09;;;;;;;6.38;3.20;;;24.60;85.80;;;;;;5010827;28;20042;-79
2022/09/04 01:47:54;;;;;;;6.43;2.75;;;24.60;84.70;;;;;;5035386;28;20021;-78
2022/09/04 01:50:25;;;;;;;8.60;3.45;;;24.60;84.60;;;;;;5018571;28;20125;-74
2022/09/04 01:53:13;;;;;;;6.72;3.45;;;24.60;84.70;;;;;;5036223;28;20374;-76
2022/09/04 01:55:46;;;;;;;6.15;3.15;;;24.60;84.60;;;;;;5036596;28;20087;-77
2022/09/04 01:58:34;;;;;;;5.72;2.88;;;24.60;84.50;;;;;;5036645;28;20079;-77
2022/09/04 02:01:10;;;;;;;6.53;3.10;;;24.60;85.00;;;;;;5036532;28;20048;-74
2022/09/04 02:03:42;;;;;;;5.60;3.15;;;24.60;84.70;;;;;;5037547;28;20168;-72
2022/09/04 02:06:30;;;;;;;4.05;2.72;;;24.50;84.50;;;;;;5042517;28;20456;-76
2022/09/04 02:09:10;;;;;;;9.10;3.30;;;24.50;83.60;;;;;;5041021;28;20053;-75
2022/09/04 02:11:39;;;;;;;6.50;3.00;;;24.50;84.50;;;;;;5037644;28;20030;-78
2022/09/04 02:14:26;;;;;;;5.88;3.17;;;24.40;83.40;;;;;;5036847;28;20140;-72
2022/09/04 02:16:55;;;;;;;8.40;3.28;;;24.40;83.70;;;;;;5035497;28;20037;-79
2022/09/04 02:19:35;;;;;;;6.78;2.70;;;24.40;84.00;;;;;;5036924;28;20041;-67
2022/09/04 02:22:05;;;;;;;6.25;3.08;;;24.40;84.10;;;;;;5037043;28;20049;-66
2022/09/04 02:24:41;;;;;;;8.60;3.30;;;24.40;83.20;;;;;;5036810;28;20026;-67
2022/09/04 02:27:38;;;;;;;5.00;2.65;;;24.40;83.30;;;;;;5035390;28;20072;-66
2022/09/04 02:30:09;;;;;;;6.57;2.95;;;24.40;84.00;;;;;;5035148;28;20025;-65
2022/09/04 02:32:37;;;;;;;5.22;2.80;;;24.30;83.00;;;;;;5034972;28;20018;-68
2022/09/04 02:35:26;;;;;;;8.25;3.22;;;24.30;83.20;;;;;;5034805;28;20021;-66
2022/09/04 02:38:22;;;;;;;6.80;2.95;;;24.30;84.10;;;;;;5034862;28;20479;-67
2022/09/04 02:40:57;;;;;;;6.25;2.63;;;24.30;84.20;;;;;;5034671;28;20038;-68
2022/09/04 02:43:45;;;;;;;6.28;3.83;;;24.20;84.40;;;;;;5034462;28;20029;-66
2022/09/04 02:46:29;;;;;;;9.00;3.70;;;24.20;84.90;;;;;;5034826;28;20029;-66
2022/09/04 02:49:14;;;;;;;5.18;3.10;;;24.10;84.60;;;;;;5034852;28;20025;-66
2022/09/04 02:51:54;;;;;;;4.90;2.80;;;24.00;85.60;;;;;;5034756;28;20021;-66
2022/09/04 02:54:55;;;;;;;5.75;3.28;;;24.00;85.80;;;;;;5034594;28;20084;-66
2022/09/04 02:57:35;;;;;;;6.00;3.15;;;24.00;86.00;;;;;;5034003;28;20036;-65
2022/09/04 03:00:18;;;;;;;6.70;2.97;;;24.00;86.00;;;;;;5034143;28;20048;-66
2022/09/04 03:03:01;;;;;;;7.18;3.13;;;24.10;86.10;;;;;;5034603;28;20018;-67
2022/09/04 03:05:40;;;;;;;6.63;2.83;;;24.10;86.10;;;;;;5034492;28;20032;-66
2022/09/04 03:08:35;;;;;;;6.03;3.15;;;24.10;84.90;;;;;;5035254;28;20084;-78
2022/09/04 03:11:08;;;;;;;8.27;3.45;;;24.10;84.80;;;;;;5034918;28;20482;-75
2022/09/04 03:13:34;;;;;;;5.60;3.08;;;24.10;85.80;;;;;;5034327;28;20021;-78
2022/09/04 03:16:15;;;;;;;8.18;3.22;;;24.10;84.80;;;;;;5034438;28;20030;-77
2022/09/04 03:18:59;;;;;;;6.53;2.92;;;24.10;84.80;;;;;;5034297;28;20022;-79
2022/09/04 03:21:43;;;;;;;;;;;24.10;84.80;;;;;;5035370;28;20028;-78
2022/09/04 03:24:12;;;;;;;;;;;24.10;86.00;;;;;;5034667;28;19909;-78
2022/09/04 03:26:50;;;;;;;4.88;2.90;;;24.00;86.10;;;;;;5035689;28;20254;-80
2022/09/04 03:29:24;;;;;;;8.05;3.42;;;24.00;84.60;;;;;;5037122;28;20033;-76
2022/09/04 03:32:09;;;;;;;7.28;3.03;;;24.00;85.40;;;;;;5035256;28;20052;-76
2022/09/04 03:34:38;;;;;;;6.22;3.05;;;24.00;85.70;;;;;;5033989;28;20029;-77
2022/09/04 03:37:29;;;;;;;8.27;3.10;;;24.00;84.80;;;;;;5034115;28;20033;-79
2022/09/04 03:40:23;;;;;;;6.15;3.03;;;24.00;85.60;;;;;;5034057;28;20069;-80
2022/09/04 03:43:16;;;;;;;6.68;3.10;;;24.10;85.60;;;;;;5034086;28;20462;-78
2022/09/04 03:46:09;;;;;;;5.90;2.72;;;24.00;85.50;;;;;;5033827;28;20033;-66
2022/09/04 03:49:00;;;;;;;6.35;3.38;;;24.00;85.60;;;;;;5034112;28;20017;-67
2022/09/04 03:51:28;;;;;;;6.95;3.00;;;24.00;85.60;;;;;;5034146;28;20028;-70
2022/09/04 03:54:15;;;;;;;5.43;3.30;;;24.00;84.80;;;;;;5015793;28;20390;-67
2022/09/04 03:56:52;;;;;;;5.03;2.88;;;24.00;84.70;;;;;;5033577;28;20033;-67
2022/09/04 03:59:24;;;;;;;8.82;3.08;;;24.00;85.80;;;;;;5033452;28;20076;-68
2022/09/04 04:01:55;;;;;;;7.13;2.88;;;23.90;84.80;;;;;;5033693;28;20425;-71
2022/09/04 04:04:42;;;;;;;10.00;3.00;;;24.00;85.80;;;;;;5033459;28;20025;-72
2022/09/04 04:07:34;;;;;;;6.20;2.80;;;23.90;86.00;;;;;;5015413;28;20052;-71
2022/09/04 04:10:12;;;;;;;5.05;2.90;;;23.90;85.90;;;;;;5032736;28;20045;-73
2022/09/04 04:13:00;;;;;;;5.32;3.10;;;23.90;85.10;;;;;;5033257;28;20521;-71
2022/09/04 04:15:40;;;;;;;6.05;3.03;;;24.00;85.90;;;;;;5033595;28;20117;-75
2022/09/04 04:18:29;;;;;;;4.95;2.80;;;24.00;84.80;;;;;;5033250;28;20029;-72
2022/09/04 04:21:07;;;;;;;9.25;3.38;;;24.00;85.60;;;;;;5033121;28;20030;-73
2022/09/04 04:23:47;;;;;;;4.53;2.90;;;24.00;84.90;;;;;;5033726;28;20060;-79
2022/09/04 04:26:37;;;;;;;5.10;2.67;;;23.90;85.70;;;;;;5033129;28;20068;-71
2022/09/04 04:29:39;;;;;;;5.05;2.83;;;23.90;85.80;;;;;;5032908;28;20112;-71
2022/09/04 04:32:13;;;;;;;6.88;2.95;;;24.00;85.70;;;;;;5038275;28;20060;-65
2022/09/04 04:34:41;;;;;;;;;;;23.90;84.20;;;;;;5039145;28;20064;-71
2022/09/04 04:37:15;;;;;;;6.82;2.85;;;23.90;85.10;;;;;;5033416;28;19912;-66
2022/09/04 04:40:15;;;;;;;7.13;2.63;;;23.90;83.70;;;;;;5033318;28;20025;-78
2022/09/04 04:43:11;;;;;;;5.78;2.40;;;23.90;83.70;;;;;;5033106;28;20039;-77
2022/09/04 04:46:02;;;;;;;7.15;2.80;;;23.90;82.70;;;;;;5033540;28;20108;-80
2022/09/04 04:48:46;;;;;;;5.68;2.75;;;23.90;83.50;;;;;;5033585;28;20406;-79
2022/09/04 04:51:41;;;;;;;5.80;2.90;;;23.90;83.40;;;;;;5034918;28;20048;-80
2022/09/04 04:54:28;;;;;;;6.22;2.80;;;23.90;83.30;;;;;;5033585;28;20013;-78
2022/09/04 04:57:03;;;;;;;6.50;2.53;;;23.90;83.10;;;;;;5032916;28;20032;-72
2022/09/04 04:59:46;;;;;;;7.53;3.03;;;24.00;82.10;;;;;;5032846;28;20455;-75
2022/09/04 05:02:30;;;;;;;6.50;2.80;;;23.90;82.10;;;;;;5032965;28;20128;-78
2022/09/04 05:05:40;;;;;;;7.30;3.28;;;24.00;82.10;;;;;;5033208;28;20749;-79
2022/09/04 05:08:24;;;;;;;5.07;2.60;;;24.00;82.90;;;;;;5032727;28;20041;-67
2022/09/04 05:11:14;;;;;;;6.95;2.50;;;24.00;81.80;;;;;;5032729;28;20034;-69
2022/09/04 05:13:58;;;;;;;5.40;2.78;;;24.00;81.80;;;;;;5021844;28;20037;-65
2022/09/04 05:16:47;;;;;;;3.65;2.17;;;24.00;81.60;;;;;;5032586;28;20188;-66
2022/09/04 05:19:15;;;;;;;6.63;2.90;;;24.00;82.40;;;;;;5032624;28;20037;-80
2022/09/04 05:22:19;;;;;;;8.13;3.05;;;24.00;82.40;;;;;;5035766;28;20036;-79
2022/09/04 05:25:08;;;;;;;9.05;3.00;;;24.10;82.40;;;;;;5036544;28;20017;-75
2022/09/04 05:28:01;;;;;;;6.53;3.03;;;24.10;82.30;;;;;;5037205;28;20026;-76
2022/09/04 05:30:51;;;;;;;6.43;3.30;;;24.10;82.30;;;;;;5037099;28;20021;-77
2022/09/04 05:33:34;;;;;;;6.32;2.78;;;24.00;82.20;;;;;;5036936;28;20087;-77
2022/09/04 05:36:22;;;;;;;7.20;3.00;;;24.00;82.50;;;;;;5037692;28;20036;-77
2022/09/04 05:39:12;;;;;;;8.07;3.22;;;24.00;82.60;;;;;;5036526;28;20028;-75
2022/09/04 05:41:53;;;;;;;8.80;3.65;;;24.00;82.80;;;;;;5036453;28;20032;-80
2022/09/04 05:44:52;;;;;;;9.05;3.33;;;23.90;82.10;;;;;;5036650;28;20030;-79
2022/09/04 05:47:33;;;;;;;6.97;2.95;;;23.90;83.10;;;;;;5018371;28;20494;-77
2022/09/04 05:50:17;;;;;;;7.00;3.33;;;23.90;83.10;;;;;;5036275;28;20034;-79
2022/09/04 05:52:54;;;;;;;9.35;3.47;;;24.00;83.10;;;;;;5036146;28;20018;-79
2022/09/04 05:55:40;;;;;;;5.68;3.40;;;24.00;82.80;;;;;;5036285;28;20036;-79
2022/09/04 05:58:27;;;;;;;7.65;3.42;;;24.00;83.20;;;;;;5036609;28;20018;-79
2022/09/04 06:01:08;;;;;;;7.68;3.42;;;23.90;83.20;;;;;;5036317;28;20044;-78
2022/09/04 06:03:57;;;;;;;8.50;3.53;;;23.90;82.50;;;;;;5036496;28;20029;-78
2022/09/04 06:06:29;;;;;;;11.15;3.65;;;23.90;83.50;;;;;;5036147;28;20045;-79
2022/09/04 06:09:17;;;;;;;6.63;3.20;;;23.80;83.50;;;;;;5036318;28;20048;-77
2022/09/04 06:11:46;;;;;;;5.63;3.10;;;23.80;83.70;;;;;;5035865;28;20360;-73
2022/09/04 06:14:47;;;;;;;7.88;3.28;;;23.70;83.10;;;;;;5036347;28;20030;-74
2022/09/04 06:17:38;;;;;;;5.65;3.45;;;23.70;84.20;;;;;;4975486;28;20027;-78
2022/09/04 06:20:33;;;;;;;6.43;3.17;;;23.70;83.30;;;;;;5020558;28;20045;-79
2022/09/04 06:23:36;;;;;;;8.80;3.58;;;23.70;83.20;;;;;;5022773;28;20034;-75
2022/09/04 06:26:26;;;;;;;8.73;3.28;;;23.70;84.00;;;;;;5035707;28;20374;-75
2022/09/04 06:29:23;;;;;;;6.47;3.10;;;23.70;83.90;;;;;;5035925;28;20041;-77
2022/09/04 06:32:09;;;;;;;9.23;3.55;;;23.80;84.00;;;;;;5035081;28;20092;-78
2022/09/04 06:35:16;;;;;;;6.82;3.75;;;23.70;82.80;;;;;;5025282;28;20497;-77
2022/09/04 06:38:09;;;;;;;6.90;3.63;;;23.80;83.70;;;;;;5034919;28;20051;-78
2022/09/04 06:40:56;;;;;;;5.90;3.28;;;23.80;82.60;;;;;;5037818;28;20058;-75
2022/09/04 06:44:03;;;;;;;6.80;3.83;;;23.70;83.40;;;;;;5046682;28;20024;-80
2022/09/04 06:46:37;;;;;;;6.65;3.10;;;23.70;83.40;;;;;;5013307;28;20043;-77
2022/09/04 06:49:19;;;;;;;5.45;2.85;;;23.70;82.90;;;;;;5035315;28;20406;-80
2022/09/04 06:52:20;;;;;;;6.75;3.60;;;23.70;83.10;;;;;;5035768;28;20014;-75
2022/09/04 06:54:59;;;;;;;6.95;3.05;;;23.70;83.60;;;;;;5035103;28;20029;-77
2022/09/04 06:57:30;;;;;;;6.70;3.20;;;23.70;83.80;;;;;;5035025;28;20022;-77
2022/09/04 07:00:12;;;;;;;10.70;3.42;;;23.60;83.20;;;;;;5035360;28;20044;-78
2022/09/04 07:03:00;;;;;;;5.78;3.03;;;23.70;84.10;;;;;;5035395;28;20033;-78
2022/09/04 07:05:33;;;;;;;6.72;2.92;;;23.70;83.90;;;;;;5035132;28;20022;-74
2022/09/04 07:08:07;;;;;;;5.20;2.77;;;23.60;83.10;;;;;;5034779;28;20111;-75
2022/09/04 07:10:45;;;;;;;7.97;3.05;;;23.60;84.50;;;;;;5035308;28;20433;-76
2022/09/04 07:13:26;;;;;;;8.30;2.95;;;23.60;82.90;;;;;;5035196;28;20037;-78
2022/09/04 07:16:30;;;;;;;15.45;3.55;;;23.70;83.60;;;;;;5035210;28;20442;-76
2022/09/04 07:19:14;;;;;;;7.30;3.20;;;23.80;83.30;;;;;;5031241;28;20522;-79
2022/09/04 07:21:51;;;;;;;13.30;3.28;;;23.70;82.90;;;;;;5034661;28;20129;-79
2022/09/04 07:24:37;;;;;;;8.13;3.38;;;23.80;82.70;;;;;;5034939;28;20028;-80
2022/09/04 07:27:35;;;;;;;7.63;4.57;;;23.80;81.20;;;;;;5035359;28;20450;-79
2022/09/04 07:30:07;;;;;;;8.25;3.20;;;23.80;81.10;;;;;;5031621;28;20041;-79
2022/09/04 07:32:39;;;;;;;6.53;3.70;;;23.80;81.30;;;;;;5035196;28;20022;-79
2022/09/04 07:35:35;;;;;;;8.07;3.58;;;23.80;81.90;;;;;;5034491;28;20045;-73
2022/09/04 07:38:07;;;;;;;11.43;3.38;;;23.90;81.80;;;;;;4989847;28;20502;-72
2022/09/04 07:40:43;;;;;;;8.63;4.00;;;24.00;81.00;;;;;;5033652;28;20034;-70
2022/09/04 07:43:24;;;;;;;7.05;3.28;;;24.00;81.10;;;;;;5033575;28;20461;-72
2022/09/04 07:46:12;;;;;;;13.32;4.13;;;24.00;81.20;;;;;;5033557;28;20466;-73
2022/09/04 07:49:22;;;;;;;8.15;3.15;;;24.00;81.10;;;;;;5034116;28;20104;-70
2022/09/04 07:51:58;;;;;;;7.25;3.05;;;24.00;81.10;;;;;;5018673;28;20044;-78
2022/09/04 07:54:57;;;;;;;6.18;3.55;;;23.90;80.30;;;;;;5033861;28;20022;-79
2022/09/04 07:57:58;;;;;;;4.95;2.78;;;23.90;81.20;;;;;;5033631;28;20029;-69
2022/09/04 08:00:25;;;;;;;7.95;3.28;;;23.90;81.20;;;;;;5033807;28;20124;-67
2022/09/04 08:03:31;;;;;;;6.10;3.63;;;23.90;81.10;;;;;;5033400;28;20382;-66
2022/09/04 08:06:12;;;;;;;11.40;3.30;;;23.90;81.90;;;;;;4999682;28;20136;-71
2022/09/04 08:08:47;;;;;;;12.50;4.80;;;23.90;81.20;;;;;;5033220;28;20033;-66
2022/09/04 08:11:31;;;;;;;11.45;3.58;;;23.90;81.90;;;;;;5033423;28;20025;-67
2022/09/04 08:14:19;;;;;;;12.32;4.75;;;24.00;82.00;;;;;;5032893;28;20026;-65
2022/09/04 08:17:23;;;;;;;9.70;3.85;;;24.00;82.10;;;;;;5033615;28;20075;-67
2022/09/04 08:20:12;;;;;;;5.35;3.30;;;24.00;82.60;;;;;;5032805;28;20091;-72
2022/09/04 08:23:00;;;;;;;8.32;3.85;;;23.90;82.20;;;;;;5002356;28;20044;-67
2022/09/04 08:26:03;;;;;;;6.38;3.50;;;23.80;84.00;;;;;;5033493;28;20112;-67
2022/09/04 08:29:11;;;;;;;6.45;3.72;;;23.70;84.50;;;;;;5033488;28;20029;-67
2022/09/04 08:32:03;;;;;;;10.55;4.07;;;23.60;85.80;;;;;;4971324;28;20368;-67
2022/09/04 08:34:37;;;;;;;7.97;4.10;;;23.50;85.60;;;;;;4972118;28;20384;-68
2022/09/04 08:37:26;;;;;;;6.75;3.65;;;23.40;85.80;;;;;;5004073;28;20374;-70
2022/09/04 08:39:51;;;;;;;8.35;3.75;;;23.40;86.70;;;;;;5033224;28;20025;-67
2022/09/04 08:42:48;;;;;;;11.50;4.10;;;23.40;86.20;;;;;;5014856;28;20036;-68
2022/09/04 08:45:35;;;;;;;13.43;4.40;;;23.30;87.50;;;;;;5032856;28;20029;-68
2022/09/04 08:48:28;;;;;;;10.20;4.15;;;23.30;88.20;;;;;;5032612;28;20028;-66
2022/09/04 08:51:33;;;;;;;10.40;4.07;;;23.30;88.60;;;;;;5032769;28;20032;-70
2022/09/04 08:54:04;;;;;;;11.73;4.65;;;23.20;88.70;;;;;;5032651;28;20017;-69
2022/09/04 08:56:54;;;;;;;9.00;4.05;;;23.30;88.60;;;;;;5032433;28;20026;-67
2022/09/04 08:59:38;;;;;;;11.35;4.28;;;23.30;89.50;;;;;;5032528;28;20103;-65
2022/09/04 09:02:41;;;;;;;31.25;23.73;;;23.20;89.30;;;;;;5032514;28;20025;-71
2022/09/04 09:05:32;;;;;;;11.77;6.60;;;23.20;90.10;;;;;;5032380;28;20022;-66
2022/09/04 09:08:20;;;;;;;16.45;5.35;;;23.30;90.20;;;;;;5032219;28;20272;-70
2022/09/04 09:11:07;;;;;;;11.77;5.28;;;23.30;90.30;;;;;;5032450;28;20036;-72
2022/09/04 09:13:54;;;;;;;11.73;4.70;;;23.30;90.30;;;;;;5032511;28;20021;-74
2022/09/04 09:16:56;;;;;;;11.07;4.75;;;23.30;90.40;;;;;;5032703;28;20482;-68
2022/09/04 09:19:54;;;;;;;11.85;5.15;;;23.40;90.70;;;;;;5032357;28;20057;-70
2022/09/04 09:22:37;;;;;;;11.15;4.80;;;23.50;90.70;;;;;;5032202;28;20025;-68
2022/09/04 09:25:23;;;;;;;12.20;5.40;;;23.40;91.00;;;;;;5032484;28;20378;-67
2022/09/04 09:28:10;;;;;;;12.30;6.13;;;23.50;90.60;;;;;;5031181;28;20025;-69
2022/09/04 09:31:01;;;;;;;11.45;6.32;;;23.60;90.90;;;;;;5032298;28;20057;-66
2022/09/04 09:33:47;;;;;;;14.55;6.32;;;23.60;91.30;;;;;;5014037;28;20030;-66
2022/09/04 09:36:45;;;;;;;14.48;6.00;;;23.50;91.20;;;;;;5001468;28;20088;-67
2022/09/04 09:39:14;;;;;;;10.85;5.40;;;23.50;91.40;;;;;;4998644;28;20055;-67
2022/09/04 09:42:29;;;;;;;9.88;5.38;;;23.50;91.40;;;;;;5014286;28;20450;-66
2022/09/04 09:45:16;;;;;;;9.07;4.88;;;23.60;91.40;;;;;;4971182;28;20458;-66
2022/09/04 09:48:01;;;;;;;11.85;5.32;;;23.60;91.30;;;;;;5031995;28;20080;-66
2022/09/04 09:51:04;;;;;;;11.93;5.05;;;23.60;91.70;;;;;;5032072;28;20076;-66
2022/09/04 09:53:55;;;;;;;10.20;5.37;;;23.60;91.60;;;;;;5031787;28;20040;-66
2022/09/04 09:56:42;;;;;;;9.80;4.90;;;23.60;91.60;;;;;;5031974;28;20687;-67
2022/09/04 09:59:16;;;;;;;11.25;5.82;;;23.70;91.70;;;;;;5031888;28;20057;-66
2022/09/04 10:01:42;;;;;;;10.00;4.95;;;23.70;91.60;;;;;;5032125;28;20076;-69
2022/09/04 10:04:39;;;;;;;13.30;6.95;;;23.80;91.30;;;;;;5031682;28;20017;-69
2022/09/04 10:07:20;;;;;;;11.15;5.13;;;23.80;91.30;;;;;;5019803;28;20444;-67
2022/09/04 10:10:04;;;;;;;13.43;5.43;;;23.80;91.10;;;;;;5035051;28;20041;-69
2022/09/04 10:13:08;;;;;;;10.77;5.20;;;23.80;91.20;;;;;;5035561;28;20065;-66
2022/09/04 10:15:53;;;;;;;12.80;5.55;;;23.90;91.50;;;;;;5017600;28;20034;-67
2022/09/04 10:18:44;;;;;;;15.40;5.63;;;24.00;91.20;;;;;;5035616;28;20059;-71
2022/09/04 10:21:19;;;;;;;11.75;4.85;;;24.00;90.90;;;;;;5035319;28;20489;-71
2022/09/04 10:23:50;;;;;;;13.82;5.25;;;24.10;90.90;;;;;;5034924;28;20057;-72
2022/09/04 10:26:43;;;;;;;8.07;4.95;;;24.20;90.80;;;;;;5035330;28;20033;-69
2022/09/04 10:29:45;;;;;;;10.43;4.95;;;24.30;90.70;;;;;;5035426;28;20369;-67
2022/09/04 10:32:31;;;;;;;11.52;4.97;;;24.30;90.40;;;;;;5035304;28;20064;-66
2022/09/04 10:35:24;;;;;;;8.40;4.43;;;24.40;90.00;;;;;;5034904;28;20152;-67
2022/09/04 10:38:11;;;;;;;10.13;4.60;;;24.50;90.00;;;;;;5034841;28;20104;-68
2022/09/04 10:41:01;;;;;;;9.60;3.60;;;24.60;89.20;;;;;;5034614;28;20033;-67
2022/09/04 10:43:45;;;;;;;10.07;4.35;;;24.70;88.20;;;;;;5034666;28;20029;-67
2022/09/04 10:46:17;;;;;;;7.50;4.00;;;24.90;86.30;;;;;;5034688;28;20044;-66
2022/09/04 10:49:10;;;;;;;9.65;3.90;;;25.10;85.80;;;;;;5034330;28;20021;-67
2022/09/04 10:52:15;;;;;;;8.68;4.13;;;25.20;85.80;;;;;;5034568;28;20064;-73
2022/09/04 10:55:02;;;;;;;9.23;4.03;;;25.30;84.70;;;;;;5034259;28;20087;-68
2022/09/04 10:57:46;;;;;;;10.05;3.85;;;25.50;85.10;;;;;;5034416;28;20044;-70
2022/09/04 11:00:19;;;;;;;12.10;3.78;;;25.60;83.90;;;;;;5033995;28;20033;-68
2022/09/04 11:03:13;;;;;;;10.77;3.90;;;25.70;83.80;;;;;;5034515;28;20025;-66
2022/09/04 11:06:01;;;;;;;;;;;25.90;82.50;;;;;;5034670;28;20025;-67
2022/09/04 11:08:51;;;;;;;7.85;3.97;;;26.00;82.40;;;;;;5035472;28;19916;-65
2022/09/04 11:11:51;;;;;;;8.25;3.50;;;26.10;81.40;;;;;;5034764;28;20379;-68
2022/09/04 11:14:27;;;;;;;8.43;3.67;;;26.30;81.40;;;;;;5034512;28;20072;-67
2022/09/04 11:17:20;;;;;;;6.45;3.70;;;26.40;80.00;;;;;;5034215;28;20029;-72
2022/09/04 11:19:59;;;;;;;9.32;3.67;;;26.50;80.00;;;;;;5033850;28;20041;-77
2022/09/04 11:23:03;;;;;;;7.55;3.65;;;26.60;79.60;;;;;;5036910;28;20030;-76
2022/09/04 11:25:53;;;;;;;6.22;3.75;;;26.80;79.10;;;;;;5035018;28;20029;-79
2022/09/04 11:28:43;;;;;;;9.32;4.07;;;26.90;78.70;;;;;;5033893;28;20017;-73
2022/09/04 11:31:47;;;;;;;8.30;3.75;;;27.00;77.80;;;;;;5015843;28;20028;-68
2022/09/04 11:34:47;;;;;;;8.35;3.50;;;27.20;77.00;;;;;;5033632;28;20051;-70
2022/09/04 11:37:36;;;;;;;10.23;4.38;;;27.30;76.20;;;;;;5033749;28;20104;-68
2022/09/04 11:40:13;;;;;;;9.23;4.50;;;27.40;75.30;;;;;;5033729;28;20324;-70
2022/09/04 11:42:40;;;;;;;9.40;4.32;;;27.50;75.40;;;;;;5033765;28;20029;-67
2022/09/04 11:45:32;;;;;;;9.18;4.00;;;27.60;74.90;;;;;;5033140;28;20052;-67
2022/09/04 11:48:25;;;;;;;10.20;3.33;;;27.70;73.50;;;;;;5033497;28;20024;-68
2022/09/04 11:51:39;;;;;;;7.28;3.30;;;27.90;73.10;;;;;;5033480;28;20025;-69
2022/09/04 11:54:18;;;;;;;8.82;2.95;;;28.00;72.60;;;;;;5020419;28;20433;-71
2022/09/04 11:56:52;;;;;;;7.45;3.03;;;28.10;72.60;;;;;;5032420;28;20021;-68
2022/09/04 11:59:21;;;;;;;8.27;3.17;;;28.20;71.00;;;;;;5033380;28;20084;-69
2022/09/04 12:02:15;;;;;;;9.38;3.60;;;28.40;70.90;;;;;;5033650;28;20025;-69
2022/09/04 12:05:05;;;;;;;8.00;3.50;;;28.40;69.30;;;;;;5033500;28;20022;-71
2022/09/04 12:07:33;;;;;;;7.00;3.10;;;28.50;69.60;;;;;;5033302;28;20076;-69
2022/09/04 12:10:14;;;;;;;12.70;3.35;;;28.60;69.20;;;;;;5033293;28;20027;-68
2022/09/04 12:13:07;;;;;;;7.55;4.47;;;28.80;68.80;;;;;;5033496;28;20025;-66
2022/09/04 12:15:43;;;;;;;7.88;3.40;;;28.80;68.40;;;;;;5033121;28;20352;-67
2022/09/04 12:18:33;;;;;;;6.50;3.15;;;28.90;68.60;;;;;;5032698;28;20033;-71
2022/09/04 12:21:05;;;;;;;9.43;3.22;;;29.00;67.70;;;;;;5032793;28;20043;-77
2022/09/04 12:23:31;;;;;;;10.07;3.08;;;29.10;67.80;;;;;;5032910;28;20029;-72
2022/09/04 12:26:16;;;;;;;8.45;3.13;;;29.10;67.30;;;;;;5032881;28;20308;-71
2022/09/04 12:29:25;;;;;;;8.07;3.15;;;29.10;67.40;;;;;;5033134;28;20029;-68
2022/09/04 12:32:20;;;;;;;6.13;2.80;;;29.20;66.90;;;;;;5032546;28;20026;-67
2022/09/04 12:35:15;;;;;;;8.10;2.95;;;29.20;66.30;;;;;;5009164;28;20037;-68
2022/09/04 12:38:23;;;;;;;7.70;2.75;;;29.20;66.20;;;;;;5032912;28;20101;-68
2022/09/04 12:40:54;;;;;;;7.15;2.72;;;29.30;65.10;;;;;;5032885;28;20041;-75
2022/09/04 12:43:32;;;;;;;10.43;3.03;;;29.30;64.60;;;;;;5032837;28;20501;-72
2022/09/04 12:46:05;;;;;;;6.25;2.50;;;29.40;64.50;;;;;;5032745;28;20095;-71
2022/09/04 12:48:54;;;;;;;9.00;2.90;;;29.50;63.80;;;;;;5032743;28;20030;-70
2022/09/04 12:51:25;;;;;;;7.88;3.13;;;29.60;64.20;;;;;;5032669;28;20033;-69
2022/09/04 12:54:03;;;;;;;8.50;2.88;;;29.70;63.50;;;;;;5032491;28;20048;-75
2022/09/04 12:56:48;;;;;;;5.03;2.65;;;29.80;62.70;;;;;;5032686;28;20033;-74
2022/09/04 12:59:51;;;;;;;9.57;2.60;;;29.90;62.50;;;;;;5032379;28;20032;-72
2022/09/04 13:02:32;;;;;;;6.35;2.75;;;30.00;62.10;;;;;;5032410;28;20478;-73
2022/09/04 13:05:25;;;;;;;7.78;2.53;;;30.10;61.80;;;;;;5032396;28;20064;-69
2022/09/04 13:08:17;;;;;;;7.40;2.72;;;30.10;61.10;;;;;;5032406;28;20398;-68
2022/09/04 13:11:00;;;;;;;5.80;2.35;;;30.10;61.50;;;;;;5004778;28;20415;-77
2022/09/04 13:14:08;;;;;;;10.13;3.13;;;30.20;61.10;;;;;;5032377;28;20041;-73
2022/09/04 13:17:03;;;;;;;6.75;2.70;;;30.30;60.20;;;;;;5032465;28;20033;-69
2022/09/04 13:19:48;;;;;;;8.45;2.78;;;30.50;59.90;;;;;;5032468;28;20040;-78
2022/09/04 13:22:16;;;;;;;7.70;2.88;;;30.60;59.40;;;;;;5032531;28;20036;-70
2022/09/04 13:25:02;;;;;;;6.13;2.58;;;30.60;59.00;;;;;;5032439;28;20056;-71
2022/09/04 13:27:39;;;;;;;9.93;2.75;;;30.60;58.20;;;;;;5032195;28;20147;-66
2022/09/04 13:30:24;;;;;;;8.32;2.50;;;30.60;58.80;;;;;;5032276;28;20029;-68
2022/09/04 13:33:15;;;;;;;8.10;3.00;;;30.50;58.60;;;;;;5032379;28;20436;-69
2022/09/04 13:36:15;;;;;;;7.45;2.53;;;30.30;58.30;;;;;;5032082;28;20034;-78
2022/09/04 13:39:05;;;;;;;12.15;2.78;;;30.20;57.60;;;;;;5032104;28;20069;-69
2022/09/04 13:41:51;;;;;;;9.23;2.80;;;30.20;57.90;;;;;;5034070;28;20038;-78
2022/09/04 13:44:42;;;;;;;9.75;2.83;;;30.20;57.60;;;;;;5036943;28;20112;-72
2022/09/04 13:47:35;;;;;;;12.10;3.38;;;30.40;57.70;;;;;;5035816;28;20042;-76
2022/09/04 13:50:24;;;;;;;6.00;2.60;;;30.60;57.50;;;;;;5035942;28;20033;-75
2022/09/04 13:52:58;;;;;;;7.47;2.70;;;30.50;57.60;;;;;;5035890;28;20268;-75
2022/09/04 13:55:40;;;;;;;8.38;2.47;;;30.60;57.20;;;;;;5035665;28;20030;-71
2022/09/04 13:58:32;;;;;;;7.70;2.60;;;30.80;55.60;;;;;;5035825;28;20018;-74
2022/09/04 14:01:00;;;;;;;8.27;2.60;;;31.00;56.10;;;;;;5035770;28;20041;-73
2022/09/04 14:03:35;;;;;;;6.18;2.38;;;31.10;55.70;;;;;;5017702;28;20382;-76
2022/09/04 14:06:05;;;;;;;8.48;3.03;;;31.20;54.20;;;;;;5034130;28;20118;-68
2022/09/04 14:08:32;;;;;;;8.35;2.70;;;31.20;55.20;;;;;;5035509;28;20100;-72
2022/09/04 14:11:25;;;;;;;8.57;2.70;;;31.30;54.80;;;;;;5035618;28;20030;-77
2022/09/04 14:14:02;;;;;;;9.67;3.23;;;31.30;53.20;;;;;;5035422;28;20052;-71
2022/09/04 14:16:31;;;;;;;8.70;3.20;;;31.30;54.40;;;;;;5035522;28;20029;-74
2022/09/04 14:19:03;;;;;;;10.35;2.83;;;31.30;54.10;;;;;;5035688;28;20411;-70